Airfield :
LOGIN :

Register | Disclaimer

   EN    FR    IT 

 










Legend :    VFR   Marginal VFR   IFR   Intensive IFR   Very Intensive IFR
Visi :
Ceiling :
>= 8 km
>= 3000ft
5 to 8 km
1000 to 3000 ft
1500m to 5 km
500 to 1000 ft
800 to 1500m
200 to 500 ft
< 800m
< 200 ft
Symbols :   Thunderstorms  Fog  Heavy snow  Heavy precipitations  Wind > 20 kt
SIGMETs :     Misc.  Thunderstorms  Icing  Turbulence  Mountain Waves  Volcanic Ashes






- Airport Elevation : 256 ft
- IATA code : CFR


LFRK - Caen

CURRENT METAR :
  • 300400Z AUTO 14005KT 9999 OVC010 06/06 Q1022

EXPIRED METARs :
  • 300330Z AUTO 14004KT 8000 OVC008 06/06 Q1022
  • 300300Z AUTO 14006KT 110V170 6000 OVC004 06/06 Q1021
  • 300230Z AUTO 16007KT 3500 BR VV/// 06/06 Q1021
  • 300200Z AUTO 14006KT 1100 R31/1100U BR VV/// 06/06 Q1021
  • 300130Z AUTO 18006KT 0700 0650 R31/0650N FG VV/// 06/06 Q1021

Expired Forecast.
Met : +33 2 31 26 68 11



MET'MAP, your aeronautical weather chart ! - Copyright ORBIFLY December 2007 - Disclaimer

ORBIFLY MET'MAP TEAM :

Programming & Development : Alexandra Zaïnal
Original concept : Baudouin d'Aumeries
Technical & hardware support : Manuel Goepfert
Assistance : Marc-Olivier Méhu




SOURCES & CREDITS :

   NOAA